메인 페이지
METAR-TAF:

METAR-TAF

공항 :

맨해튼, 캔자스, 미국

위도: 39-08-07N, 경도: 096-40-40W, 고도: 321m

현재 날씨관측

예보는 34분 전, 07:52시(UTC)에 발표되었습니다.
6kt
온도 8°C
습도 57%
기압 1020 hPa
시정: 16.1km
고도 2300ft 상공 흐림

METAR: KMHK 200752Z AUTO 09006KT 10SM OVC023 08/00 A3011 RMK AO2 SLP200 T00780000

시각: 03:26 (08:26 UTC)

예보

예보는 3 시간 6분 전, 05:20시(UTC)에 발표되었습니다.
예보 대상 시간: 20일 06시부터 21일 06시까지 (UTC)
6kt
시정: 10km
고도 2800ft 상공 흐림
20일 1100시부터 (UTC)
동남동5kt
시정: 10km
고도 1800ft 상공 흐림
20일 1700시부터 (UTC)
8kt
시정: 10km
고도 2500ft 상공 구름 많음
20일 2000시부터 (UTC)
남서8kt
시정: 10km
고도 3500ft 상공 구름 많음

TAF: KMHK 200520Z 2006/2106 09006KT P6SM OVC028 FM201100 11005KT P6SM OVC018 FM201700 18008KT P6SM BKN025 FM202000 22008KT P6SM BKN035

4,000개 이상의 공항 관측 자료 및 예보 (METAR 및 TAF 보고).

지도상에서 검색 가능한 기상관측소가 노란 점과 빨간 점으로 표시되어 있습니다.

기상관측소 명을 보려면 표시 위로 마우스를 이동하세요.

날씨 관측과 예보를 보려면 클릭하세요.

지도 변경 : 확대하려면 엑스 표시가 있는 녹색 버튼, 축소하려면 빼기 표시가 있는 녹색 버튼, 다음 페이지의 지도를 보려면 녹색 화살표를 클릭하세요.


METAR-TAF: